sensor_id;sensor_type;location;lat;lon;timestamp;P1;durP1;ratioP1;P2;durP2;ratioP2
45688;SDS011;31400;48.132;20.872;2022-07-05T00:01:03;7.88;;;2.33;;
45688;SDS011;31400;48.132;20.872;2022-07-05T00:03:29;2.67;;;1.67;;
45688;SDS011;31400;48.132;20.872;2022-07-05T00:05:55;4.40;;;2.17;;
45688;SDS011;31400;48.132;20.872;2022-07-05T00:08:21;4.05;;;2.22;;
45688;SDS011;31400;48.132;20.872;2022-07-05T00:10:47;4.88;;;1.65;;
45688;SDS011;31400;48.132;20.872;2022-07-05T00:13:14;4.57;;;2.13;;
45688;SDS011;31400;48.132;20.872;2022-07-05T00:15:40;3.28;;;1.85;;
45688;SDS011;31400;48.132;20.872;2022-07-05T00:18:07;4.50;;;2.20;;
45688;SDS011;31400;48.132;20.872;2022-07-05T00:20:33;4.45;;;2.22;;
45688;SDS011;31400;48.132;20.872;2022-07-05T00:22:59;4.38;;;2.40;;
45688;SDS011;31400;48.132;20.872;2022-07-05T00:25:25;3.30;;;1.80;;
45688;SDS011;31400;48.132;20.872;2022-07-05T00:27:51;3.40;;;1.90;;
45688;SDS011;31400;48.132;20.872;2022-07-05T00:30:20;3.28;;;1.75;;
45688;SDS011;31400;48.132;20.872;2022-07-05T00:32:47;4.47;;;2.15;;
45688;SDS011;31400;48.132;20.872;2022-07-05T00:35:13;4.40;;;1.73;;
45688;SDS011;31400;48.132;20.872;2022-07-05T00:37:39;3.17;;;1.80;;
45688;SDS011;31400;48.132;20.872;2022-07-05T00:40:05;3.45;;;1.98;;
45688;SDS011;31400;48.132;20.872;2022-07-05T00:42:33;6.20;;;2.42;;
45688;SDS011;31400;48.132;20.872;2022-07-05T00:44:59;4.15;;;2.30;;
45688;SDS011;31400;48.132;20.872;2022-07-05T00:47:25;3.67;;;2.03;;
45688;SDS011;31400;48.132;20.872;2022-07-05T00:49:51;3.05;;;1.63;;
45688;SDS011;31400;48.132;20.872;2022-07-05T00:52:17;3.33;;;1.90;;
45688;SDS011;31400;48.132;20.872;2022-07-05T00:54:43;3.42;;;1.65;;
45688;SDS011;31400;48.132;20.872;2022-07-05T00:57:09;5.15;;;2.38;;
45688;SDS011;31400;48.132;20.872;2022-07-05T00:59:35;9.10;;;2.88;;
45688;SDS011;31400;48.132;20.872;2022-07-05T01:02:01;4.15;;;2.33;;
45688;SDS011;31400;48.132;20.872;2022-07-05T01:04:28;4.55;;;2.30;;
45688;SDS011;31400;48.132;20.872;2022-07-05T01:06:55;4.70;;;3.05;;
45688;SDS011;31400;48.132;20.872;2022-07-05T01:09:22;6.43;;;3.38;;
45688;SDS011;31400;48.132;20.872;2022-07-05T01:11:49;5.03;;;2.60;;
45688;SDS011;31400;48.132;20.872;2022-07-05T01:14:16;5.38;;;2.40;;
45688;SDS011;31400;48.132;20.872;2022-07-05T01:16:43;6.82;;;2.65;;
45688;SDS011;31400;48.132;20.872;2022-07-05T01:19:09;5.18;;;2.15;;
45688;SDS011;31400;48.132;20.872;2022-07-05T01:21:41;5.38;;;2.20;;
45688;SDS011;31400;48.132;20.872;2022-07-05T01:24:11;6.63;;;2.95;;
45688;SDS011;31400;48.132;20.872;2022-07-05T01:26:38;3.58;;;2.05;;
45688;SDS011;31400;48.132;20.872;2022-07-05T01:29:05;4.47;;;1.90;;
45688;SDS011;31400;48.132;20.872;2022-07-05T01:31:31;6.28;;;2.50;;
45688;SDS011;31400;48.132;20.872;2022-07-05T01:33:57;4.72;;;2.28;;
45688;SDS011;31400;48.132;20.872;2022-07-05T01:36:23;4.63;;;2.17;;
45688;SDS011;31400;48.132;20.872;2022-07-05T01:38:50;6.15;;;2.92;;
45688;SDS011;31400;48.132;20.872;2022-07-05T01:41:16;3.70;;;2.15;;
45688;SDS011;31400;48.132;20.872;2022-07-05T01:43:42;5.53;;;2.55;;
45688;SDS011;31400;48.132;20.872;2022-07-05T01:46:09;4.18;;;2.13;;
45688;SDS011;31400;48.132;20.872;2022-07-05T01:48:37;4.85;;;2.33;;
45688;SDS011;31400;48.132;20.872;2022-07-05T01:51:04;4.10;;;2.00;;
45688;SDS011;31400;48.132;20.872;2022-07-05T01:53:31;4.47;;;2.08;;
45688;SDS011;31400;48.132;20.872;2022-07-05T01:56:01;3.65;;;1.95;;
45688;SDS011;31400;48.132;20.872;2022-07-05T01:58:28;5.68;;;2.53;;
45688;SDS011;31400;48.132;20.872;2022-07-05T02:00:54;3.55;;;1.67;;
45688;SDS011;31400;48.132;20.872;2022-07-05T02:03:21;3.97;;;2.28;;
45688;SDS011;31400;48.132;20.872;2022-07-05T02:05:47;3.42;;;1.58;;
45688;SDS011;31400;48.132;20.872;2022-07-05T02:08:14;4.88;;;2.25;;
45688;SDS011;31400;48.132;20.872;2022-07-05T02:10:40;2.80;;;2.08;;
45688;SDS011;31400;48.132;20.872;2022-07-05T02:13:07;3.72;;;2.35;;
45688;SDS011;31400;48.132;20.872;2022-07-05T02:15:34;4.57;;;2.17;;
45688;SDS011;31400;48.132;20.872;2022-07-05T02:18:00;4.25;;;1.88;;
45688;SDS011;31400;48.132;20.872;2022-07-05T02:20:27;3.47;;;2.00;;
45688;SDS011;31400;48.132;20.872;2022-07-05T02:22:53;4.15;;;1.38;;
45688;SDS011;31400;48.132;20.872;2022-07-05T02:25:19;4.03;;;2.25;;
45688;SDS011;31400;48.132;20.872;2022-07-05T02:27:46;3.85;;;1.90;;
45688;SDS011;31400;48.132;20.872;2022-07-05T02:30:12;4.38;;;2.30;;
45688;SDS011;31400;48.132;20.872;2022-07-05T02:32:38;2.83;;;1.90;;
45688;SDS011;31400;48.132;20.872;2022-07-05T02:37:30;4.60;;;2.05;;
45688;SDS011;31400;48.132;20.872;2022-07-05T02:39:56;3.47;;;2.13;;
45688;SDS011;31400;48.132;20.872;2022-07-05T02:42:22;3.42;;;1.95;;
45688;SDS011;31400;48.132;20.872;2022-07-05T02:44:48;4.60;;;2.30;;
45688;SDS011;31400;48.132;20.872;2022-07-05T02:49:40;5.70;;;1.83;;
45688;SDS011;31400;48.132;20.872;2022-07-05T02:52:06;3.65;;;1.80;;
45688;SDS011;31400;48.132;20.872;2022-07-05T02:56:58;3.97;;;2.35;;
45688;SDS011;31400;48.132;20.872;2022-07-05T02:59:25;2.95;;;1.73;;
45688;SDS011;31400;48.132;20.872;2022-07-05T03:01:51;6.45;;;2.03;;
45688;SDS011;31400;48.132;20.872;2022-07-05T03:04:17;2.97;;;1.75;;
45688;SDS011;31400;48.132;20.872;2022-07-05T03:06:43;3.58;;;1.90;;
45688;SDS011;31400;48.132;20.872;2022-07-05T03:09:09;5.30;;;2.55;;
45688;SDS011;31400;48.132;20.872;2022-07-05T03:11:35;3.75;;;1.80;;
45688;SDS011;31400;48.132;20.872;2022-07-05T03:14:02;3.17;;;1.30;;
45688;SDS011;31400;48.132;20.872;2022-07-05T03:16:28;4.43;;;2.10;;
45688;SDS011;31400;48.132;20.872;2022-07-05T03:18:54;6.07;;;1.77;;
45688;SDS011;31400;48.132;20.872;2022-07-05T03:21:21;3.20;;;1.52;;
45688;SDS011;31400;48.132;20.872;2022-07-05T03:23:47;2.90;;;1.48;;
45688;SDS011;31400;48.132;20.872;2022-07-05T03:26:13;4.28;;;1.63;;
45688;SDS011;31400;48.132;20.872;2022-07-05T03:28:39;4.65;;;1.60;;
45688;SDS011;31400;48.132;20.872;2022-07-05T03:31:05;4.35;;;1.85;;
45688;SDS011;31400;48.132;20.872;2022-07-05T03:33:31;2.38;;;1.48;;
45688;SDS011;31400;48.132;20.872;2022-07-05T03:35:57;3.25;;;1.92;;
45688;SDS011;31400;48.132;20.872;2022-07-05T03:38:24;2.80;;;1.75;;
45688;SDS011;31400;48.132;20.872;2022-07-05T03:43:16;6.40;;;2.55;;
45688;SDS011;31400;48.132;20.872;2022-07-05T03:45:42;3.60;;;1.92;;
45688;SDS011;31400;48.132;20.872;2022-07-05T03:48:08;2.60;;;1.67;;
45688;SDS011;31400;48.132;20.872;2022-07-05T03:50:34;3.45;;;1.63;;
45688;SDS011;31400;48.132;20.872;2022-07-05T03:53:00;2.53;;;1.63;;
45688;SDS011;31400;48.132;20.872;2022-07-05T03:55:26;3.45;;;1.90;;
45688;SDS011;31400;48.132;20.872;2022-07-05T03:57:52;2.05;;;1.35;;
45688;SDS011;31400;48.132;20.872;2022-07-05T04:02:44;7.65;;;1.65;;
45688;SDS011;31400;48.132;20.872;2022-07-05T04:05:10;3.22;;;1.23;;
45688;SDS011;31400;48.132;20.872;2022-07-05T04:07:49;3.75;;;1.92;;
45688;SDS011;31400;48.132;20.872;2022-07-05T04:10:16;3.10;;;1.63;;
45688;SDS011;31400;48.132;20.872;2022-07-05T04:12:43;3.97;;;1.52;;
45688;SDS011;31400;48.132;20.872;2022-07-05T04:15:09;3.15;;;1.35;;
45688;SDS011;31400;48.132;20.872;2022-07-05T04:17:38;3.05;;;1.42;;
45688;SDS011;31400;48.132;20.872;2022-07-05T04:20:11;3.03;;;1.80;;
45688;SDS011;31400;48.132;20.872;2022-07-05T04:22:37;2.90;;;1.35;;
45688;SDS011;31400;48.132;20.872;2022-07-05T04:25:03;4.38;;;2.00;;
45688;SDS011;31400;48.132;20.872;2022-07-05T04:27:41;3.08;;;1.80;;
45688;SDS011;31400;48.132;20.872;2022-07-05T04:30:07;2.75;;;1.38;;
45688;SDS011;31400;48.132;20.872;2022-07-05T04:32:34;4.03;;;1.73;;
45688;SDS011;31400;48.132;20.872;2022-07-05T04:35:00;3.63;;;2.08;;
45688;SDS011;31400;48.132;20.872;2022-07-05T04:37:26;2.63;;;1.80;;
45688;SDS011;31400;48.132;20.872;2022-07-05T04:39:52;2.75;;;1.75;;
45688;SDS011;31400;48.132;20.872;2022-07-05T04:42:19;3.40;;;1.20;;
45688;SDS011;31400;48.132;20.872;2022-07-05T04:44:45;3.92;;;1.92;;
45688;SDS011;31400;48.132;20.872;2022-07-05T04:47:11;4.57;;;2.08;;
45688;SDS011;31400;48.132;20.872;2022-07-05T04:49:37;4.20;;;1.58;;
45688;SDS011;31400;48.132;20.872;2022-07-05T04:52:03;3.60;;;2.15;;
45688;SDS011;31400;48.132;20.872;2022-07-05T04:54:29;2.78;;;2.00;;
45688;SDS011;31400;48.132;20.872;2022-07-05T04:56:55;2.95;;;1.83;;
45688;SDS011;31400;48.132;20.872;2022-07-05T04:59:21;2.67;;;2.25;;
45688;SDS011;31400;48.132;20.872;2022-07-05T05:01:47;5.47;;;1.88;;
45688;SDS011;31400;48.132;20.872;2022-07-05T05:04:13;3.00;;;1.60;;
45688;SDS011;31400;48.132;20.872;2022-07-05T05:06:39;3.40;;;1.70;;
45688;SDS011;31400;48.132;20.872;2022-07-05T05:09:05;2.97;;;1.70;;
45688;SDS011;31400;48.132;20.872;2022-07-05T05:11:31;6.75;;;1.70;;
45688;SDS011;31400;48.132;20.872;2022-07-05T05:13:57;3.50;;;1.75;;
45688;SDS011;31400;48.132;20.872;2022-07-05T05:16:23;4.07;;;1.95;;
45688;SDS011;31400;48.132;20.872;2022-07-05T05:18:49;5.15;;;1.98;;
45688;SDS011;31400;48.132;20.872;2022-07-05T05:21:16;3.95;;;2.20;;
45688;SDS011;31400;48.132;20.872;2022-07-05T05:23:42;3.60;;;2.28;;
45688;SDS011;31400;48.132;20.872;2022-07-05T05:26:08;3.83;;;2.28;;
45688;SDS011;31400;48.132;20.872;2022-07-05T05:28:34;3.22;;;1.85;;
45688;SDS011;31400;48.132;20.872;2022-07-05T05:31:00;3.30;;;1.75;;
45688;SDS011;31400;48.132;20.872;2022-07-05T05:33:26;3.28;;;1.98;;
45688;SDS011;31400;48.132;20.872;2022-07-05T05:35:52;3.13;;;1.75;;
45688;SDS011;31400;48.132;20.872;2022-07-05T05:38:18;5.43;;;2.10;;
45688;SDS011;31400;48.132;20.872;2022-07-05T05:40:45;4.40;;;2.25;;
45688;SDS011;31400;48.132;20.872;2022-07-05T05:43:11;4.30;;;2.15;;
45688;SDS011;31400;48.132;20.872;2022-07-05T05:45:37;2.50;;;1.70;;
45688;SDS011;31400;48.132;20.872;2022-07-05T05:48:03;4.38;;;2.03;;
45688;SDS011;31400;48.132;20.872;2022-07-05T05:50:33;3.38;;;1.95;;
45688;SDS011;31400;48.132;20.872;2022-07-05T05:52:59;4.07;;;2.00;;
45688;SDS011;31400;48.132;20.872;2022-07-05T05:55:26;2.53;;;1.55;;
45688;SDS011;31400;48.132;20.872;2022-07-05T05:57:52;2.65;;;1.83;;
45688;SDS011;31400;48.132;20.872;2022-07-05T06:00:19;3.53;;;1.75;;
45688;SDS011;31400;48.132;20.872;2022-07-05T06:02:46;2.35;;;1.50;;
45688;SDS011;31400;48.132;20.872;2022-07-05T06:05:12;3.25;;;1.73;;
45688;SDS011;31400;48.132;20.872;2022-07-05T06:07:46;3.60;;;2.13;;
45688;SDS011;31400;48.132;20.872;2022-07-05T06:10:23;12.48;;;3.22;;
45688;SDS011;31400;48.132;20.872;2022-07-05T06:12:49;7.53;;;2.28;;
45688;SDS011;31400;48.132;20.872;2022-07-05T06:15:16;3.30;;;1.65;;
45688;SDS011;31400;48.132;20.872;2022-07-05T06:17:42;16.95;;;2.40;;
45688;SDS011;31400;48.132;20.872;2022-07-05T06:20:27;8.40;;;2.30;;
45688;SDS011;31400;48.132;20.872;2022-07-05T06:22:54;4.18;;;1.85;;
45688;SDS011;31400;48.132;20.872;2022-07-05T06:25:20;3.03;;;1.75;;
45688;SDS011;31400;48.132;20.872;2022-07-05T06:27:47;2.97;;;1.92;;
45688;SDS011;31400;48.132;20.872;2022-07-05T06:30:15;14.43;;;1.88;;
45688;SDS011;31400;48.132;20.872;2022-07-05T06:32:44;3.95;;;1.70;;
45688;SDS011;31400;48.132;20.872;2022-07-05T06:35:10;13.20;;;1.70;;
45688;SDS011;31400;48.132;20.872;2022-07-05T06:40:09;3.10;;;1.63;;
45688;SDS011;31400;48.132;20.872;2022-07-05T06:42:35;4.95;;;2.92;;
45688;SDS011;31400;48.132;20.872;2022-07-05T06:45:01;2.88;;;1.70;;
45688;SDS011;31400;48.132;20.872;2022-07-05T06:47:27;2.40;;;1.35;;
45688;SDS011;31400;48.132;20.872;2022-07-05T06:49:53;4.05;;;1.67;;
45688;SDS011;31400;48.132;20.872;2022-07-05T06:52:19;2.63;;;1.65;;
45688;SDS011;31400;48.132;20.872;2022-07-05T06:54:45;4.95;;;1.90;;
45688;SDS011;31400;48.132;20.872;2022-07-05T06:57:11;3.53;;;1.63;;
45688;SDS011;31400;48.132;20.872;2022-07-05T06:59:37;3.45;;;1.90;;
45688;SDS011;31400;48.132;20.872;2022-07-05T07:02:03;3.63;;;2.10;;
45688;SDS011;31400;48.132;20.872;2022-07-05T07:04:30;4.95;;;2.17;;
45688;SDS011;31400;48.132;20.872;2022-07-05T07:06:56;4.40;;;2.22;;
45688;SDS011;31400;48.132;20.872;2022-07-05T07:09:22;3.72;;;1.88;;
45688;SDS011;31400;48.132;20.872;2022-07-05T07:11:48;10.68;;;2.30;;
45688;SDS011;31400;48.132;20.872;2022-07-05T07:14:17;4.38;;;1.75;;
45688;SDS011;31400;48.132;20.872;2022-07-05T07:16:43;4.22;;;1.80;;
45688;SDS011;31400;48.132;20.872;2022-07-05T07:19:09;4.15;;;2.33;;
45688;SDS011;31400;48.132;20.872;2022-07-05T07:21:36;4.10;;;1.67;;
45688;SDS011;31400;48.132;20.872;2022-07-05T07:24:02;2.60;;;1.50;;
45688;SDS011;31400;48.132;20.872;2022-07-05T07:26:28;15.10;;;2.88;;
45688;SDS011;31400;48.132;20.872;2022-07-05T07:28:54;6.50;;;2.08;;
45688;SDS011;31400;48.132;20.872;2022-07-05T07:31:20;3.20;;;1.60;;
45688;SDS011;31400;48.132;20.872;2022-07-05T07:33:46;3.15;;;1.77;;
45688;SDS011;31400;48.132;20.872;2022-07-05T07:36:12;3.35;;;1.90;;
45688;SDS011;31400;48.132;20.872;2022-07-05T07:38:38;4.90;;;2.00;;
45688;SDS011;31400;48.132;20.872;2022-07-05T07:41:04;3.63;;;1.42;;
45688;SDS011;31400;48.132;20.872;2022-07-05T07:43:30;3.22;;;1.73;;
45688;SDS011;31400;48.132;20.872;2022-07-05T07:45:56;9.23;;;1.88;;
45688;SDS011;31400;48.132;20.872;2022-07-05T07:48:23;7.45;;;2.25;;
45688;SDS011;31400;48.132;20.872;2022-07-05T07:50:50;6.93;;;2.63;;
45688;SDS011;31400;48.132;20.872;2022-07-05T07:53:16;4.47;;;1.85;;
45688;SDS011;31400;48.132;20.872;2022-07-05T07:55:42;3.78;;;1.75;;
45688;SDS011;31400;48.132;20.872;2022-07-05T07:58:08;2.65;;;1.70;;
45688;SDS011;31400;48.132;20.872;2022-07-05T08:00:34;4.07;;;2.05;;
45688;SDS011;31400;48.132;20.872;2022-07-05T08:03:00;3.42;;;1.80;;
45688;SDS011;31400;48.132;20.872;2022-07-05T08:05:26;6.50;;;2.00;;
45688;SDS011;31400;48.132;20.872;2022-07-05T08:07:52;4.70;;;1.63;;
45688;SDS011;31400;48.132;20.872;2022-07-05T08:10:18;2.30;;;1.80;;
45688;SDS011;31400;48.132;20.872;2022-07-05T08:12:44;2.75;;;1.83;;
45688;SDS011;31400;48.132;20.872;2022-07-05T08:15:10;4.60;;;2.30;;
45688;SDS011;31400;48.132;20.872;2022-07-05T08:17:36;3.20;;;1.80;;
45688;SDS011;31400;48.132;20.872;2022-07-05T08:20:23;4.57;;;1.80;;
45688;SDS011;31400;48.132;20.872;2022-07-05T08:23:08;4.25;;;1.80;;
45688;SDS011;31400;48.132;20.872;2022-07-05T08:25:34;6.53;;;2.63;;
45688;SDS011;31400;48.132;20.872;2022-07-05T08:28:00;2.85;;;1.70;;
45688;SDS011;31400;48.132;20.872;2022-07-05T08:30:26;3.83;;;2.63;;
45688;SDS011;31400;48.132;20.872;2022-07-05T08:32:52;4.40;;;2.00;;
45688;SDS011;31400;48.132;20.872;2022-07-05T08:35:18;4.15;;;2.15;;
45688;SDS011;31400;48.132;20.872;2022-07-05T08:37:44;2.80;;;2.08;;
45688;SDS011;31400;48.132;20.872;2022-07-05T08:40:11;2.55;;;1.80;;
45688;SDS011;31400;48.132;20.872;2022-07-05T08:42:38;3.70;;;2.30;;
45688;SDS011;31400;48.132;20.872;2022-07-05T08:45:04;3.35;;;2.28;;
45688;SDS011;31400;48.132;20.872;2022-07-05T08:47:31;7.93;;;2.65;;
45688;SDS011;31400;48.132;20.872;2022-07-05T08:49:58;3.42;;;1.92;;
45688;SDS011;31400;48.132;20.872;2022-07-05T08:52:24;3.45;;;2.50;;
45688;SDS011;31400;48.132;20.872;2022-07-05T08:54:51;4.88;;;2.50;;
45688;SDS011;31400;48.132;20.872;2022-07-05T08:57:18;8.43;;;2.58;;
45688;SDS011;31400;48.132;20.872;2022-07-05T08:59:44;5.47;;;2.58;;
45688;SDS011;31400;48.132;20.872;2022-07-05T09:02:11;5.03;;;2.35;;
45688;SDS011;31400;48.132;20.872;2022-07-05T09:04:42;5.50;;;2.58;;
45688;SDS011;31400;48.132;20.872;2022-07-05T09:07:08;7.65;;;2.00;;
45688;SDS011;31400;48.132;20.872;2022-07-05T09:09:37;4.55;;;3.03;;
45688;SDS011;31400;48.132;20.872;2022-07-05T09:12:08;3.25;;;1.90;;
45688;SDS011;31400;48.132;20.872;2022-07-05T09:14:35;4.07;;;2.50;;
45688;SDS011;31400;48.132;20.872;2022-07-05T09:17:01;11.38;;;2.95;;
45688;SDS011;31400;48.132;20.872;2022-07-05T09:19:27;4.15;;;3.03;;
45688;SDS011;31400;48.132;20.872;2022-07-05T09:22:04;3.45;;;2.08;;
45688;SDS011;31400;48.132;20.872;2022-07-05T09:24:30;10.43;;;2.92;;
45688;SDS011;31400;48.132;20.872;2022-07-05T09:27:03;4.03;;;2.47;;
45688;SDS011;31400;48.132;20.872;2022-07-05T09:29:29;4.47;;;2.50;;
45688;SDS011;31400;48.132;20.872;2022-07-05T09:31:55;4.47;;;2.90;;
45688;SDS011;31400;48.132;20.872;2022-07-05T09:34:21;3.67;;;2.55;;
45688;SDS011;31400;48.132;20.872;2022-07-05T09:36:51;4.28;;;2.78;;
45688;SDS011;31400;48.132;20.872;2022-07-05T09:44:38;5.10;;;2.88;;
45688;SDS011;31400;48.132;20.872;2022-07-05T09:47:08;9.48;;;3.00;;
45688;SDS011;31400;48.132;20.872;2022-07-05T09:49:35;4.30;;;2.97;;
45688;SDS011;31400;48.132;20.872;2022-07-05T09:52:01;5.28;;;3.10;;
45688;SDS011;31400;48.132;20.872;2022-07-05T09:54:27;4.35;;;2.80;;
45688;SDS011;31400;48.132;20.872;2022-07-05T09:56:54;4.47;;;3.00;;
45688;SDS011;31400;48.132;20.872;2022-07-05T09:59:20;5.22;;;3.72;;
45688;SDS011;31400;48.132;20.872;2022-07-05T10:01:46;6.35;;;3.65;;
45688;SDS011;31400;48.132;20.872;2022-07-05T10:04:12;5.00;;;2.88;;
45688;SDS011;31400;48.132;20.872;2022-07-05T10:06:39;6.55;;;3.28;;
45688;SDS011;31400;48.132;20.872;2022-07-05T10:09:05;6.72;;;3.20;;
45688;SDS011;31400;48.132;20.872;2022-07-05T10:11:31;7.50;;;2.30;;
45688;SDS011;31400;48.132;20.872;2022-07-05T10:13:58;6.35;;;2.60;;
45688;SDS011;31400;48.132;20.872;2022-07-05T10:16:24;5.03;;;3.45;;
45688;SDS011;31400;48.132;20.872;2022-07-05T10:18:51;7.10;;;2.72;;
45688;SDS011;31400;48.132;20.872;2022-07-05T10:21:17;4.20;;;2.63;;
45688;SDS011;31400;48.132;20.872;2022-07-05T10:23:51;6.13;;;2.58;;
45688;SDS011;31400;48.132;20.872;2022-07-05T10:26:21;3.65;;;2.88;;
45688;SDS011;31400;48.132;20.872;2022-07-05T10:28:48;4.18;;;2.65;;
45688;SDS011;31400;48.132;20.872;2022-07-05T10:31:15;3.92;;;2.67;;
45688;SDS011;31400;48.132;20.872;2022-07-05T10:33:41;4.32;;;2.75;;
45688;SDS011;31400;48.132;20.872;2022-07-05T10:36:11;3.70;;;2.40;;
45688;SDS011;31400;48.132;20.872;2022-07-05T10:38:38;5.13;;;2.75;;
45688;SDS011;31400;48.132;20.872;2022-07-05T10:41:05;4.85;;;3.00;;
45688;SDS011;31400;48.132;20.872;2022-07-05T10:43:32;3.55;;;2.45;;
45688;SDS011;31400;48.132;20.872;2022-07-05T10:45:58;4.82;;;2.72;;
45688;SDS011;31400;48.132;20.872;2022-07-05T10:48:25;6.80;;;3.03;;
45688;SDS011;31400;48.132;20.872;2022-07-05T10:53:24;4.03;;;2.58;;
45688;SDS011;31400;48.132;20.872;2022-07-05T10:55:51;4.78;;;3.33;;
45688;SDS011;31400;48.132;20.872;2022-07-05T10:58:26;5.32;;;3.05;;
45688;SDS011;31400;48.132;20.872;2022-07-05T11:03:41;5.57;;;2.58;;
45688;SDS011;31400;48.132;20.872;2022-07-05T11:06:08;3.47;;;2.38;;
45688;SDS011;31400;48.132;20.872;2022-07-05T11:11:22;3.83;;;2.88;;
45688;SDS011;31400;48.132;20.872;2022-07-05T11:13:49;5.20;;;2.97;;
45688;SDS011;31400;48.132;20.872;2022-07-05T11:18:48;6.70;;;4.35;;
45688;SDS011;31400;48.132;20.872;2022-07-05T11:21:19;4.32;;;3.00;;
45688;SDS011;31400;48.132;20.872;2022-07-05T11:23:46;5.68;;;3.05;;
45688;SDS011;31400;48.132;20.872;2022-07-05T11:26:12;7.97;;;3.08;;
45688;SDS011;31400;48.132;20.872;2022-07-05T11:28:45;4.72;;;3.42;;
45688;SDS011;31400;48.132;20.872;2022-07-05T11:31:12;8.10;;;3.80;;
45688;SDS011;31400;48.132;20.872;2022-07-05T11:36:06;5.05;;;3.13;;
45688;SDS011;31400;48.132;20.872;2022-07-05T11:38:32;7.40;;;2.92;;
45688;SDS011;31400;48.132;20.872;2022-07-05T11:41:11;8.85;;;3.42;;
45688;SDS011;31400;48.132;20.872;2022-07-05T11:43:38;5.20;;;3.33;;
45688;SDS011;31400;48.132;20.872;2022-07-05T11:46:04;4.82;;;3.10;;
45688;SDS011;31400;48.132;20.872;2022-07-05T11:48:30;3.92;;;2.40;;
45688;SDS011;31400;48.132;20.872;2022-07-05T11:50:57;4.72;;;2.80;;
45688;SDS011;31400;48.132;20.872;2022-07-05T11:53:26;3.97;;;3.03;;
45688;SDS011;31400;48.132;20.872;2022-07-05T11:55:59;5.60;;;3.28;;
45688;SDS011;31400;48.132;20.872;2022-07-05T11:58:31;4.32;;;3.15;;
45688;SDS011;31400;48.132;20.872;2022-07-05T12:00:58;3.53;;;2.88;;
45688;SDS011;31400;48.132;20.872;2022-07-05T12:03:24;4.53;;;3.30;;
45688;SDS011;31400;48.132;20.872;2022-07-05T12:05:50;5.35;;;2.70;;
45688;SDS011;31400;48.132;20.872;2022-07-05T12:08:21;4.03;;;3.05;;
45688;SDS011;31400;48.132;20.872;2022-07-05T12:10:47;10.10;;;3.63;;
45688;SDS011;31400;48.132;20.872;2022-07-05T12:13:48;5.97;;;3.33;;
45688;SDS011;31400;48.132;20.872;2022-07-05T12:16:15;4.45;;;3.40;;
45688;SDS011;31400;48.132;20.872;2022-07-05T12:18:51;11.02;;;3.42;;
45688;SDS011;31400;48.132;20.872;2022-07-05T12:21:17;11.85;;;4.72;;
45688;SDS011;31400;48.132;20.872;2022-07-05T12:23:45;4.43;;;3.33;;
45688;SDS011;31400;48.132;20.872;2022-07-05T12:26:12;9.23;;;3.05;;
45688;SDS011;31400;48.132;20.872;2022-07-05T12:28:38;4.07;;;3.28;;
45688;SDS011;31400;48.132;20.872;2022-07-05T12:31:21;10.88;;;3.38;;
45688;SDS011;31400;48.132;20.872;2022-07-05T12:33:48;4.30;;;3.00;;
45688;SDS011;31400;48.132;20.872;2022-07-05T12:36:15;6.75;;;3.53;;
45688;SDS011;31400;48.132;20.872;2022-07-05T12:38:41;5.13;;;2.92;;
45688;SDS011;31400;48.132;20.872;2022-07-05T12:41:08;5.95;;;3.05;;
45688;SDS011;31400;48.132;20.872;2022-07-05T12:43:50;5.97;;;3.03;;
45688;SDS011;31400;48.132;20.872;2022-07-05T12:46:17;3.88;;;2.70;;
45688;SDS011;31400;48.132;20.872;2022-07-05T12:48:43;6.72;;;3.33;;
45688;SDS011;31400;48.132;20.872;2022-07-05T12:51:10;13.82;;;3.72;;
45688;SDS011;31400;48.132;20.872;2022-07-05T12:53:46;5.95;;;3.33;;
45688;SDS011;31400;48.132;20.872;2022-07-05T12:56:31;6.30;;;3.13;;
45688;SDS011;31400;48.132;20.872;2022-07-05T12:59:16;4.60;;;2.97;;
45688;SDS011;31400;48.132;20.872;2022-07-05T13:01:43;12.07;;;3.97;;
45688;SDS011;31400;48.132;20.872;2022-07-05T13:04:11;5.75;;;2.97;;
45688;SDS011;31400;48.132;20.872;2022-07-05T13:06:49;6.80;;;3.17;;
45688;SDS011;31400;48.132;20.872;2022-07-05T13:12:15;4.65;;;2.88;;
45688;SDS011;31400;48.132;20.872;2022-07-05T13:14:44;3.80;;;2.83;;
45688;SDS011;31400;48.132;20.872;2022-07-05T13:17:11;4.30;;;3.08;;
45688;SDS011;31400;48.132;20.872;2022-07-05T13:19:38;6.85;;;3.53;;
45688;SDS011;31400;48.132;20.872;2022-07-05T13:22:04;8.55;;;4.00;;
45688;SDS011;31400;48.132;20.872;2022-07-05T13:24:30;6.85;;;3.15;;
45688;SDS011;31400;48.132;20.872;2022-07-05T13:26:57;6.30;;;3.20;;
45688;SDS011;31400;48.132;20.872;2022-07-05T13:29:23;4.68;;;3.17;;
45688;SDS011;31400;48.132;20.872;2022-07-05T13:31:49;3.83;;;2.70;;
45688;SDS011;31400;48.132;20.872;2022-07-05T13:34:15;7.28;;;3.22;;
45688;SDS011;31400;48.132;20.872;2022-07-05T13:36:41;6.20;;;2.88;;
45688;SDS011;31400;48.132;20.872;2022-07-05T13:39:07;4.38;;;3.45;;
45688;SDS011;31400;48.132;20.872;2022-07-05T13:41:33;6.82;;;3.92;;
45688;SDS011;31400;48.132;20.872;2022-07-05T13:43:59;6.53;;;2.80;;
45688;SDS011;31400;48.132;20.872;2022-07-05T13:46:26;6.97;;;2.75;;
45688;SDS011;31400;48.132;20.872;2022-07-05T13:48:52;6.07;;;2.58;;
45688;SDS011;31400;48.132;20.872;2022-07-05T13:51:18;5.22;;;3.13;;
45688;SDS011;31400;48.132;20.872;2022-07-05T13:53:45;5.18;;;2.53;;
45688;SDS011;31400;48.132;20.872;2022-07-05T13:56:11;3.63;;;2.65;;
45688;SDS011;31400;48.132;20.872;2022-07-05T13:58:37;6.47;;;2.85;;
45688;SDS011;31400;48.132;20.872;2022-07-05T14:01:03;5.03;;;2.95;;
45688;SDS011;31400;48.132;20.872;2022-07-05T14:03:29;4.45;;;2.95;;
45688;SDS011;31400;48.132;20.872;2022-07-05T14:05:55;6.63;;;2.97;;
45688;SDS011;31400;48.132;20.872;2022-07-05T14:08:22;4.43;;;2.58;;
45688;SDS011;31400;48.132;20.872;2022-07-05T14:10:51;5.38;;;2.85;;
45688;SDS011;31400;48.132;20.872;2022-07-05T14:13:18;6.78;;;3.75;;
45688;SDS011;31400;48.132;20.872;2022-07-05T14:15:46;4.40;;;2.53;;
45688;SDS011;31400;48.132;20.872;2022-07-05T14:18:12;5.65;;;3.35;;
45688;SDS011;31400;48.132;20.872;2022-07-05T14:20:39;5.10;;;2.22;;
45688;SDS011;31400;48.132;20.872;2022-07-05T14:23:05;5.32;;;1.88;;
45688;SDS011;31400;48.132;20.872;2022-07-05T14:25:31;3.20;;;1.63;;
45688;SDS011;31400;48.132;20.872;2022-07-05T14:27:57;3.97;;;1.80;;
45688;SDS011;31400;48.132;20.872;2022-07-05T14:30:23;2.78;;;1.88;;
45688;SDS011;31400;48.132;20.872;2022-07-05T14:32:49;3.15;;;1.90;;
45688;SDS011;31400;48.132;20.872;2022-07-05T14:35:15;4.40;;;2.45;;
45688;SDS011;31400;48.132;20.872;2022-07-05T14:37:41;3.60;;;2.13;;
45688;SDS011;31400;48.132;20.872;2022-07-05T14:40:08;5.30;;;2.33;;
45688;SDS011;31400;48.132;20.872;2022-07-05T14:42:34;3.50;;;1.92;;
45688;SDS011;31400;48.132;20.872;2022-07-05T14:45:00;14.80;;;2.05;;
45688;SDS011;31400;48.132;20.872;2022-07-05T14:47:26;2.63;;;1.63;;
45688;SDS011;31400;48.132;20.872;2022-07-05T14:49:53;3.13;;;1.98;;
45688;SDS011;31400;48.132;20.872;2022-07-05T14:52:19;3.13;;;1.63;;
45688;SDS011;31400;48.132;20.872;2022-07-05T14:54:45;2.78;;;1.80;;
45688;SDS011;31400;48.132;20.872;2022-07-05T14:57:11;2.38;;;1.33;;
45688;SDS011;31400;48.132;20.872;2022-07-05T14:59:37;3.05;;;1.88;;
45688;SDS011;31400;48.132;20.872;2022-07-05T15:02:04;3.10;;;1.80;;
45688;SDS011;31400;48.132;20.872;2022-07-05T15:04:33;3.88;;;2.10;;
45688;SDS011;31400;48.132;20.872;2022-07-05T15:06:59;2.40;;;1.58;;
45688;SDS011;31400;48.132;20.872;2022-07-05T15:09:25;4.25;;;1.58;;